Grosse Ile, MI

2:55 PM EDT on March 28, 2015 (GMT -0400)
West Shore Estates | | Change Station
CLOSE
Current Station
Personal Weather Station
Location: Grosse Ile Township, MI
Elevation: 584 ft
Nearby Weather Stations

Elev 584 ft 42.14 °N, 83.17 °W | Updated 12 seconds ago

Mostly Cloudy
Mostly Cloudy
31.6 °F
Feels Like 26 °F
N
6.0
Wind Variable Wind from WNW
Gusts 10.0 mph

Today
High -- | Low -- °F
--% Chance of Precip.
Yesterday
High -- | Low -- °F
Precip. -- in
7:22 AM 7:53 PM
Waxing Gibbous, 64% visible
Pressure 30.27 in
Visibility 10.0 miles
Clouds Mostly Cloudy 5000 ft
Windchill 26 °F
Dew Point 9 °F
Humidity 38%
Rainfall 0.00 in
Snow Depth Not available.
UV 1.8 out of 12
Pollen 4.70 out of 12
Air Quality Not available.
Flu Activity Not available.
METAR KONZ 281834Z AUTO 12003KT 10SM BKN050 00/M13 A3027 RMK AO2

More Conditions Fewer Conditions

Pressure 30.27 in
Visibility 10.0 miles
Clouds Mostly Cloudy 5000 ft
Windchill 26 °F
Dew Point 9 °F
Humidity 38%
Rainfall 0.00 in
Snow Depth Not available.
UV 1.8 out of 12
Pollen 4.70 out of 12
Air Quality Not available.
Flu Activity Not available.
METAR KONZ 281834Z AUTO 12003KT 10SM BKN050 00/M13 A3027 RMK AO2

More Conditions Fewer Conditions

10-Day Weather Forecast

Almanac

Astronomy

Mar. 28, 2015 Rise Set
Actual Time
Civil Twilight
Nautical Twilight
Astronomical Twilight
Moon
Length of Visible Light
Length of Day
Tomorrow will be .
, % of the Moon is Illuminated

Today's Extremes

State Highs State Lows

Community

WunderPhotos

Upload Photos

1,809,055 photos uploaded!

WunderBlogs® & News

Nearby

Air Quality

  Air Quality AQ Index Pollutant
Not available.

Snow Depth

Station Depth Elevation

Earthquake Activity

City Distance Mag. Time & Date
Minimum magnitude displayed is 2.5.

Coastal Water Temperatures

Place Temperature

Stations

Nearby Weather Stations

Station Location Temp. Windchill Dew Point Humidity Wind Precip. Elev Updated Type